createdAt,value
2022-12-01T00:03:26.483Z,1603
2022-12-01T00:08:45.061Z,1609
2022-12-01T00:14:03.263Z,1601
2022-12-01T00:19:22.105Z,1577
2022-12-01T00:24:46.130Z,1565
2022-12-01T00:30:04.049Z,1578
2022-12-01T00:35:22.882Z,1606
2022-12-01T00:40:41.104Z,1641
2022-12-01T00:45:59.342Z,1673
2022-12-01T00:51:17.871Z,1664
2022-12-01T00:56:35.761Z,1671
2022-12-01T01:01:53.964Z,1690
2022-12-01T01:07:12.413Z,1695
2022-12-01T01:12:30.342Z,1699
2022-12-01T01:17:48.268Z,1699
2022-12-01T01:23:06.748Z,1701
2022-12-01T01:28:25.513Z,1700
2022-12-01T01:33:44.259Z,1699
2022-12-01T01:39:02.796Z,1694
2022-12-01T01:44:21.561Z,1691
2022-12-01T01:49:40.042Z,1685
2022-12-01T01:54:58.277Z,1694
2022-12-01T02:00:17.032Z,1686
2022-12-01T02:05:35.518Z,1673
2022-12-01T02:10:54.050Z,1661
2022-12-01T02:16:12.801Z,1656
2022-12-01T02:21:31.420Z,1656
2022-12-01T02:26:49.934Z,1647
2022-12-01T02:32:08.724Z,1644
2022-12-01T02:37:27.463Z,1646
2022-12-01T02:42:45.988Z,1629
2022-12-01T02:48:04.191Z,1610
2022-12-01T02:53:22.658Z,1615
2022-12-01T02:58:41.197Z,1632
2022-12-01T03:03:59.687Z,1630
2022-12-01T03:09:18.461Z,1623
2022-12-01T03:14:36.985Z,1630
2022-12-01T03:19:55.174Z,1618
2022-12-01T03:25:13.694Z,1626
2022-12-01T03:30:31.619Z,1612
2022-12-01T03:35:49.837Z,1592
2022-12-01T03:41:08.311Z,1598
2022-12-01T03:46:26.609Z,1606
2022-12-01T03:51:44.849Z,1612
2022-12-01T03:57:03.031Z,1613
2022-12-01T04:02:21.879Z,1616
2022-12-01T04:07:24.985Z,1610
2022-12-01T04:12:43.719Z,1604
2022-12-01T04:18:02.017Z,1600
2022-12-01T04:23:20.197Z,1596
2022-12-01T04:28:38.743Z,1590
2022-12-01T04:33:57.508Z,1591
2022-12-01T04:39:15.983Z,1582
2022-12-01T04:44:35.123Z,1585
2022-12-01T04:49:53.637Z,1590
2022-12-01T04:55:11.828Z,1594
2022-12-01T05:00:30.107Z,1576
2022-12-01T05:05:48.111Z,1558
2022-12-01T05:11:06.590Z,1515
2022-12-01T05:16:25.139Z,1504
2022-12-01T05:21:43.761Z,1496
2022-12-01T05:27:01.681Z,1501
2022-12-01T05:32:20.235Z,1522
2022-12-01T05:37:38.471Z,1501
2022-12-01T05:42:56.964Z,1296
2022-12-01T05:48:15.190Z,1326
2022-12-01T05:53:33.964Z,1366
2022-12-01T05:58:52.739Z,1379
2022-12-01T06:04:10.942Z,1383
2022-12-01T06:09:29.435Z,1386
2022-12-01T06:14:47.943Z,1390
2022-12-01T06:20:06.449Z,1375
2022-12-01T06:25:24.663Z,1364
2022-12-01T06:30:43.389Z,1346
2022-12-01T06:36:01.617Z,1334
2022-12-01T06:41:20.389Z,1317
2022-12-01T06:46:38.705Z,1311
2022-12-01T06:51:57.263Z,1296
2022-12-01T06:57:18.516Z,1285
2022-12-01T07:02:38.309Z,1275
2022-12-01T07:07:59.586Z,1265
2022-12-01T07:13:18.621Z,1257
2022-12-01T07:18:36.714Z,1250
2022-12-01T07:23:39.289Z,1247
2022-12-01T07:28:57.583Z,1243
2022-12-01T07:34:16.052Z,1231
2022-12-01T07:39:34.834Z,1217
2022-12-01T07:44:53.621Z,1210
2022-12-01T07:49:56.220Z,1205
2022-12-01T07:55:14.803Z,1192
2022-12-01T08:00:33.292Z,1182
2022-12-01T08:05:51.485Z,1180
2022-12-01T08:11:10.277Z,1168
2022-12-01T08:16:29.107Z,1164
2022-12-01T08:21:47.568Z,1156
2022-12-01T08:27:06.110Z,1166
2022-12-01T08:32:09.322Z,1159
2022-12-01T08:37:28.072Z,1159
2022-12-01T08:42:46.252Z,1162
2022-12-01T08:48:05.055Z,1155
2022-12-01T08:53:23.806Z,1151
2022-12-01T08:58:42.286Z,1145
2022-12-01T09:04:00.520Z,1145
2022-12-01T09:09:18.696Z,1144
2022-12-01T09:14:37.204Z,1144
2022-12-01T09:19:55.976Z,1142
2022-12-01T09:25:14.447Z,1139
2022-12-01T09:30:33.213Z,1142
2022-12-01T09:35:51.466Z,1137
2022-12-01T09:41:09.959Z,1134
2022-12-01T09:46:28.872Z,1127
2022-12-01T09:51:47.135Z,1122
2022-12-01T09:57:05.875Z,1113
2022-12-01T10:02:24.442Z,1112
2022-12-01T10:07:42.736Z,1108
2022-12-01T10:13:01.180Z,1111
2022-12-01T10:18:19.626Z,1114
2022-12-01T10:23:38.171Z,1117
2022-12-01T10:28:56.067Z,1109
2022-12-01T10:34:14.544Z,1111
2022-12-01T10:39:33.048Z,1103
2022-12-01T10:44:51.276Z,1101
2022-12-01T10:50:09.472Z,1098
2022-12-01T10:55:27.469Z,1089
2022-12-01T11:01:01.417Z,1082
2022-12-01T11:06:20.752Z,1076
2022-12-01T11:11:39.012Z,1060
2022-12-01T11:16:56.978Z,1051
2022-12-01T11:22:15.158Z,1045
2022-12-01T11:27:33.658Z,1043
2022-12-01T11:32:51.854Z,1035
2022-12-01T11:38:29.083Z,1030
2022-12-01T11:43:56.807Z,1025
2022-12-01T11:49:24.213Z,1015
2022-12-01T11:54:42.149Z,1011
2022-12-01T12:00:00.671Z,1006
2022-12-01T12:05:19.176Z,1005
2022-12-01T12:10:37.722Z,1002
2022-12-01T12:15:56.219Z,1001
2022-12-01T12:21:14.415Z,993
2022-12-01T12:26:33.155Z,990
2022-12-01T12:31:51.734Z,986
2022-12-01T12:37:10.477Z,982
2022-12-01T12:42:29.246Z,978
2022-12-01T12:47:47.811Z,965
2022-12-01T12:53:05.996Z,964
2022-12-01T12:58:24.196Z,962
2022-12-01T13:03:42.701Z,965
2022-12-01T13:09:00.868Z,973
2022-12-01T13:14:19.349Z,963
2022-12-01T13:19:38.058Z,962
2022-12-01T13:24:56.531Z,982
2022-12-01T13:30:15.303Z,983
2022-12-01T13:35:33.822Z,988
2022-12-01T13:40:52.006Z,992
2022-12-01T13:46:10.514Z,1000
2022-12-01T13:51:28.506Z,996
2022-12-01T13:56:46.992Z,994
2022-12-01T14:02:05.831Z,1004
2022-12-01T14:07:24.365Z,1009
2022-12-01T14:12:42.893Z,1014
2022-12-01T14:18:00.834Z,1015
2022-12-01T14:23:19.345Z,1017
2022-12-01T14:28:37.247Z,1021
2022-12-01T14:33:55.447Z,1028
2022-12-01T14:39:14.250Z,1031
2022-12-01T14:44:32.462Z,1038
2022-12-01T14:49:50.761Z,1041
2022-12-01T14:55:09.016Z,1049
2022-12-01T15:00:27.463Z,1053
2022-12-01T15:05:46.224Z,1053
2022-12-01T15:11:09.517Z,1058
2022-12-01T15:16:29.600Z,1060
2022-12-01T15:21:48.281Z,1062
2022-12-01T15:27:06.523Z,1066
2022-12-01T15:32:24.479Z,1061
2022-12-01T15:37:42.915Z,1077
2022-12-01T15:43:01.400Z,1084
2022-12-01T15:48:19.886Z,1079
2022-12-01T15:53:38.082Z,1076
2022-12-01T15:58:41.302Z,1072
2022-12-01T16:03:59.740Z,1063
2022-12-01T16:09:17.718Z,1054
2022-12-01T16:14:35.616Z,1059
2022-12-01T16:19:54.035Z,1055
2022-12-01T16:25:12.789Z,1058
2022-12-01T16:30:31.695Z,1055
2022-12-01T16:35:49.973Z,1056
2022-12-01T16:41:08.191Z,1056
2022-12-01T16:46:26.382Z,1057
2022-12-01T16:52:06.901Z,1047
2022-12-01T16:58:03.110Z,1044
2022-12-01T17:03:21.630Z,1039
2022-12-01T17:08:39.541Z,1037
2022-12-01T17:13:58.076Z,1034
2022-12-01T17:19:16.027Z,1107
2022-12-01T17:24:35.345Z,1107
2022-12-01T17:29:53.832Z,1108
2022-12-01T17:35:11.768Z,1099
2022-12-01T17:40:30.262Z,1083
2022-12-01T17:45:48.205Z,1043
2022-12-01T17:51:06.445Z,1021
2022-12-01T17:56:24.911Z,1030
2022-12-01T18:01:43.582Z,1035
2022-12-01T18:07:01.935Z,1056
2022-12-01T18:12:20.684Z,1133
2022-12-01T18:17:38.609Z,1104
2022-12-01T18:22:57.365Z,1093
2022-12-01T18:28:15.292Z,1097
2022-12-01T18:33:34.045Z,1168
2022-12-01T18:38:52.846Z,1213
2022-12-01T18:44:11.582Z,1228
2022-12-01T18:49:29.796Z,1228
2022-12-01T18:54:48.335Z,1223
2022-12-01T19:00:07.248Z,1230
2022-12-01T19:05:25.423Z,1228
2022-12-01T19:10:44.220Z,1231
2022-12-01T19:16:02.456Z,1235
2022-12-01T19:21:20.717Z,1239
2022-12-01T19:26:38.916Z,1246
2022-12-01T19:31:57.209Z,1251
2022-12-01T19:37:15.546Z,1259
2022-12-01T19:42:34.351Z,1256
2022-12-01T19:47:52.829Z,1263
2022-12-01T19:53:11.041Z,1260
2022-12-01T19:58:29.522Z,1260
2022-12-01T20:03:48.284Z,1266
2022-12-01T20:09:06.483Z,1272
2022-12-01T20:14:24.697Z,1280
2022-12-01T20:19:43.165Z,1296
2022-12-01T20:25:01.414Z,1299
2022-12-01T20:30:19.335Z,1302
2022-12-01T20:35:37.510Z,1314
2022-12-01T20:40:56.005Z,1326
2022-12-01T20:46:14.598Z,1341
2022-12-01T20:51:33.201Z,1405
2022-12-01T20:56:52.019Z,1393
2022-12-01T21:02:10.585Z,1392
2022-12-01T21:07:29.330Z,1381
2022-12-01T21:12:49.111Z,1424
2022-12-01T21:18:07.929Z,1470
2022-12-01T21:23:26.681Z,1496
2022-12-01T21:28:45.192Z,1563
2022-12-01T21:34:03.686Z,1578
2022-12-01T21:39:21.855Z,1596
2022-12-01T21:44:39.802Z,1615
2022-12-01T21:49:58.322Z,1606
2022-12-01T21:55:16.771Z,1610
2022-12-01T22:00:35.254Z,1599
2022-12-01T22:06:13.977Z,1610
2022-12-01T22:11:48.891Z,1619
2022-12-01T22:17:07.094Z,1617
2022-12-01T22:22:25.626Z,1620
2022-12-01T22:27:44.213Z,1617
2022-12-01T22:33:02.725Z,1627
2022-12-01T22:38:21.243Z,1644
2022-12-01T22:43:39.418Z,1613
2022-12-01T22:48:57.910Z,1598
2022-12-01T22:54:16.724Z,1598
2022-12-01T22:59:35.260Z,1600
2022-12-01T23:04:53.920Z,1601
2022-12-01T23:10:12.741Z,1598
2022-12-01T23:15:30.675Z,1608
2022-12-01T23:20:49.423Z,1611
2022-12-01T23:26:08.245Z,1605
2022-12-01T23:31:26.461Z,1609
2022-12-01T23:36:45.334Z,1615
2022-12-01T23:42:03.589Z,1604
2022-12-01T23:47:21.495Z,1617
2022-12-01T23:52:39.707Z,1651
2022-12-01T23:57:57.938Z,1694
